Time;durP1;ratioP1;P1;durP2;ratioP2;P2;SDS_P1;SDS_P2;PMS_P1;PMS_P2;Temp;Humidity;BMP_temperature;BMP_pressure;BME280_temperature;BME280_humidity;BME280_pressure;Samples;Min_cycle;Max_cycle;Signal;HPM_P1;HPM_P2
2023/06/27 00:00:52;;;;;;;6.40;5.30;;;24.20;49.80;;;;;;5031616;28;20511;-55
2023/06/27 00:03:18;;;;;;;5.90;4.80;;;24.10;50.10;;;;;;5031934;28;20503;-56
2023/06/27 00:05:44;;;;;;;6.20;4.80;;;24.10;50.50;;;;;;5031829;28;20990;-55
2023/06/27 00:08:10;;;;;;;7.60;5.20;;;24.10;50.70;;;;;;5031758;28;20207;-55
2023/06/27 00:10:36;;;;;;;7.43;5.43;;;24.10;50.70;;;;;;5031514;28;20235;-56
2023/06/27 00:13:01;;;;;;;7.13;5.00;;;24.10;50.60;;;;;;5031890;28;20523;-54
2023/06/27 00:15:33;;;;;;;6.83;5.93;;;24.00;49.90;;;;;;5031664;28;20638;-55
2023/06/27 00:17:59;;;;;;;7.53;6.83;;;24.10;50.20;;;;;;5031878;28;20860;-54
2023/06/27 00:20:25;;;;;;;6.57;5.17;;;24.00;50.50;;;;;;5031529;28;20440;-54
2023/06/27 00:22:51;;;;;;;9.90;6.30;;;24.10;50.40;;;;;;5031967;28;20178;-57
2023/06/27 00:25:17;;;;;;;8.10;7.07;;;24.10;50.30;;;;;;5031681;28;20770;-54
2023/06/27 00:27:44;;;;;;;6.20;5.47;;;24.00;50.40;;;;;;5031441;28;20230;-56
2023/06/27 00:30:10;;;;;;;7.00;5.30;;;24.10;50.70;;;;;;5031402;28;20413;-53
2023/06/27 00:32:36;;;;;;;5.53;5.03;;;24.00;50.30;;;;;;5031640;28;20300;-57
2023/06/27 00:35:01;;;;;;;7.57;6.77;;;24.00;50.40;;;;;;5031826;28;20436;-56
2023/06/27 00:37:27;;;;;;;9.37;6.17;;;24.00;50.40;;;;;;5031489;28;20692;-53
2023/06/27 00:39:53;;;;;;;6.70;5.77;;;24.00;50.40;;;;;;5033028;28;20538;-53
2023/06/27 00:42:20;;;;;;;12.43;6.40;;;24.00;50.30;;;;;;5035216;28;20227;-56
2023/06/27 00:44:46;;;;;;;7.37;5.80;;;24.00;50.60;;;;;;5035145;28;20189;-54
2023/06/27 00:47:12;;;;;;;13.53;7.23;;;24.00;50.50;;;;;;5035070;28;20428;-54
2023/06/27 00:49:38;;;;;;;10.10;7.00;;;24.00;50.30;;;;;;5034840;28;20549;-55
2023/06/27 00:52:04;;;;;;;7.23;6.13;;;24.00;50.00;;;;;;5035098;28;20448;-55
2023/06/27 00:54:30;;;;;;;7.10;5.77;;;24.00;50.30;;;;;;5034858;28;20459;-54
2023/06/27 00:56:56;;;;;;;10.50;6.53;;;23.90;50.60;;;;;;5034950;28;20428;-57
2023/06/27 00:59:23;;;;;;;7.23;6.50;;;23.90;50.80;;;;;;5035063;28;21161;-54
2023/06/27 01:01:49;;;;;;;7.73;6.97;;;24.00;50.80;;;;;;5035019;28;20892;-54
2023/06/27 01:04:15;;;;;;;8.20;6.60;;;24.00;50.70;;;;;;5034955;28;20633;-56
2023/06/27 01:07:00;;;;;;;14.07;6.93;;;24.00;50.80;;;;;;5034717;28;20385;-54
2023/06/27 01:10:00;;;;;;;7.57;6.77;;;24.00;50.70;;;;;;5034539;28;20827;-58
2023/06/27 01:13:00;;;;;;;16.10;6.57;;;24.00;50.70;;;;;;5034732;28;20555;-56
2023/06/27 01:15:26;;;;;;;7.37;6.67;;;24.00;50.60;;;;;;5034560;28;20452;-55
2023/06/27 01:17:52;;;;;;;10.73;6.63;;;24.00;50.80;;;;;;5034477;28;20468;-57
2023/06/27 01:20:19;;;;;;;8.50;5.90;;;24.00;51.00;;;;;;5034380;28;20424;-54
2023/06/27 01:22:59;;;;;;;10.13;6.50;;;24.00;51.00;;;;;;5034472;28;20438;-54
2023/06/27 01:25:27;;;;;;;12.23;6.50;;;24.00;50.50;;;;;;5034431;28;20483;-56
2023/06/27 01:27:53;;;;;;;6.93;6.00;;;23.90;50.50;;;;;;5034110;28;20825;-56
2023/06/27 01:30:19;;;;;;;6.93;6.23;;;24.00;50.50;;;;;;5034744;28;20412;-53
2023/06/27 01:33:07;;;;;;;7.13;5.23;;;23.90;50.20;;;;;;5034554;28;20236;-55
2023/06/27 01:35:47;;;;;;;10.23;5.87;;;23.90;50.00;;;;;;5034237;28;20169;-55
2023/06/27 01:38:25;;;;;;;12.53;5.60;;;23.90;49.90;;;;;;5034113;28;20441;-55
2023/06/27 01:40:54;;;;;;;8.10;6.40;;;23.90;50.10;;;;;;5033981;28;20904;-55
2023/06/27 01:43:22;;;;;;;5.73;5.00;;;23.90;50.00;;;;;;5034338;28;20413;-55
2023/06/27 01:45:49;;;;;;;7.60;5.73;;;23.90;49.80;;;;;;5034065;28;20405;-53
2023/06/27 01:48:16;;;;;;;7.23;5.90;;;23.80;49.50;;;;;;5034056;28;20921;-55
2023/06/27 01:50:41;;;;;;;9.23;5.07;;;23.80;49.60;;;;;;5032948;28;20911;-55
2023/06/27 01:53:07;;;;;;;8.20;6.33;;;23.70;49.50;;;;;;5033850;28;20412;-54
2023/06/27 01:55:36;;;;;;;8.83;5.50;;;23.70;49.40;;;;;;5034120;28;20178;-54
2023/06/27 01:58:01;;;;;;;15.73;5.50;;;23.70;49.70;;;;;;5033745;28;20208;-55
2023/06/27 02:00:28;;;;;;;11.37;6.00;;;23.60;49.70;;;;;;5033523;28;20409;-55
2023/06/27 02:02:53;;;;;;;6.40;5.80;;;23.60;49.80;;;;;;5033818;28;20181;-57
2023/06/27 02:05:19;;;;;;;5.50;4.73;;;23.70;49.90;;;;;;5033552;28;20463;-54
2023/06/27 02:07:45;;;;;;;7.83;5.87;;;23.70;50.10;;;;;;5033886;28;20208;-54
2023/06/27 02:10:11;;;;;;;7.87;5.63;;;23.60;49.80;;;;;;5033668;28;20180;-56
2023/06/27 02:12:36;;;;;;;7.07;6.17;;;23.60;50.10;;;;;;5033723;28;20748;-53
2023/06/27 02:15:02;;;;;;;7.83;5.77;;;23.60;50.20;;;;;;5033796;28;20174;-54
2023/06/27 02:17:28;;;;;;;8.77;6.53;;;23.60;50.90;;;;;;5033457;28;20198;-56
2023/06/27 02:19:54;;;;;;;10.33;7.67;;;23.60;50.10;;;;;;5033443;28;20412;-56
2023/06/27 02:22:20;;;;;;;16.60;9.90;;;23.60;50.10;;;;;;5033398;28;20643;-54
2023/06/27 02:24:46;;;;;;;10.90;9.00;;;23.60;49.80;;;;;;5033536;28;20181;-56
2023/06/27 02:27:13;;;;;;;9.87;7.40;;;23.50;50.00;;;;;;5033190;28;20214;-55
2023/06/27 02:29:38;;;;;;;8.13;5.87;;;23.50;49.70;;;;;;5033017;28;20189;-53
2023/06/27 02:32:05;;;;;;;4.70;4.10;;;23.40;49.40;;;;;;5033391;28;20467;-53
2023/06/27 02:34:30;;;;;;;10.87;6.20;;;23.40;49.20;;;;;;5032959;28;20178;-54
2023/06/27 02:36:56;;;;;;;9.10;5.60;;;23.40;49.10;;;;;;5033044;28;20446;-55
2023/06/27 02:39:22;;;;;;;12.80;5.27;;;23.40;49.20;;;;;;5032861;28;20166;-54
2023/06/27 02:41:48;;;;;;;5.77;4.53;;;23.30;48.90;;;;;;5032951;28;20170;-54
2023/06/27 02:44:13;;;;;;;9.30;5.13;;;23.30;48.90;;;;;;5033006;28;20236;-56
2023/06/27 02:46:39;;;;;;;9.20;4.90;;;23.30;49.00;;;;;;5032890;28;20685;-53
2023/06/27 02:49:05;;;;;;;6.20;4.73;;;23.20;48.90;;;;;;5032692;28;20511;-56
2023/06/27 02:51:32;;;;;;;7.03;4.63;;;23.20;48.90;;;;;;5031320;28;20471;-53
2023/06/27 02:53:57;;;;;;;5.83;4.77;;;23.20;48.70;;;;;;5032984;28;20405;-53
2023/06/27 02:56:23;;;;;;;11.03;5.17;;;23.10;48.60;;;;;;5032976;28;20420;-56
2023/06/27 02:58:49;;;;;;;8.10;4.93;;;23.10;48.80;;;;;;5032750;28;20547;-54
2023/06/27 03:01:15;;;;;;;6.73;4.87;;;23.10;48.80;;;;;;5032590;28;20500;-54
2023/06/27 03:03:43;;;;;;;11.00;5.40;;;23.00;48.90;;;;;;5032750;28;20246;-58
2023/06/27 03:06:09;;;;;;;8.30;4.37;;;23.00;49.00;;;;;;5032864;28;20231;-54
2023/06/27 03:08:37;;;;;;;9.90;4.40;;;23.00;49.10;;;;;;5032538;28;20424;-54
2023/06/27 03:11:03;;;;;;;5.67;4.43;;;23.00;48.90;;;;;;5032311;28;20488;-54
2023/06/27 03:13:29;;;;;;;7.90;5.10;;;22.90;48.80;;;;;;5032438;28;20432;-54
2023/06/27 03:15:55;;;;;;;6.20;4.40;;;22.90;49.00;;;;;;5032488;28;20412;-53
2023/06/27 03:18:21;;;;;;;8.87;4.73;;;22.90;49.60;;;;;;5032307;28;20189;-56
2023/06/27 03:20:46;;;;;;;5.20;3.80;;;22.90;49.10;;;;;;5032303;28;20955;-53
2023/06/27 03:23:12;;;;;;;17.70;5.30;;;22.90;49.20;;;;;;5032288;28;20197;-54
2023/06/27 03:25:38;;;;;;;4.93;4.43;;;22.90;48.90;;;;;;5032344;28;20661;-57
2023/06/27 03:28:03;;;;;;;7.00;4.73;;;22.90;49.10;;;;;;5032445;28;20216;-56
2023/06/27 03:30:29;;;;;;;6.60;4.60;;;22.80;49.10;;;;;;5031881;28;20530;-54
2023/06/27 03:32:55;;;;;;;6.57;4.97;;;22.80;48.50;;;;;;5032321;28;20216;-56
2023/06/27 03:35:21;;;;;;;11.87;5.40;;;22.70;48.90;;;;;;5032124;28;20272;-53
2023/06/27 03:37:46;;;;;;;7.57;4.37;;;22.70;49.00;;;;;;5032125;28;20190;-55
2023/06/27 03:40:12;;;;;;;10.97;5.23;;;22.60;48.50;;;;;;5032182;28;20174;-56
2023/06/27 03:42:38;;;;;;;6.97;4.40;;;22.60;48.70;;;;;;5032353;28;20593;-53
2023/06/27 03:45:04;;;;;;;5.47;4.73;;;22.60;48.40;;;;;;5032085;28;20444;-56
2023/06/27 03:47:30;;;;;;;6.37;4.03;;;22.50;47.80;;;;;;5031917;28;20201;-54
2023/06/27 03:49:56;;;;;;;6.13;3.70;;;22.50;48.00;;;;;;5031766;28;20409;-54
2023/06/27 03:52:22;;;;;;;6.60;3.60;;;22.50;48.00;;;;;;5031929;28;20209;-56
2023/06/27 03:54:47;;;;;;;5.40;4.10;;;22.40;48.00;;;;;;5032227;28;20174;-56
2023/06/27 03:57:13;;;;;;;12.27;4.63;;;22.40;48.10;;;;;;5032178;28;20204;-54
2023/06/27 03:59:39;;;;;;;10.90;4.07;;;22.30;47.80;;;;;;5031732;28;20569;-58
2023/06/27 04:02:04;;;;;;;7.00;3.90;;;22.30;48.00;;;;;;5031816;28;20174;-56
2023/06/27 04:04:30;;;;;;;8.20;3.37;;;22.30;48.40;;;;;;5031806;28;20292;-55
2023/06/27 04:06:56;;;;;;;10.70;4.33;;;22.30;48.40;;;;;;5031734;28;20717;-57
2023/06/27 04:09:22;;;;;;;6.73;4.50;;;22.30;48.20;;;;;;5031497;28;20184;-55
2023/06/27 04:11:47;;;;;;;6.30;4.27;;;22.30;48.20;;;;;;5031761;28;20201;-54
2023/06/27 04:14:17;;;;;;;7.03;3.70;;;22.30;48.80;;;;;;5032520;28;20231;-57
2023/06/27 04:16:44;;;;;;;8.00;4.20;;;22.40;48.60;;;;;;5035570;28;20189;-56
2023/06/27 04:19:10;;;;;;;12.63;4.00;;;22.40;48.90;;;;;;5035540;28;20932;-54
2023/06/27 04:21:35;;;;;;;12.63;3.80;;;22.50;48.80;;;;;;5035525;28;20412;-57
2023/06/27 04:24:01;;;;;;;6.53;3.90;;;22.50;48.30;;;;;;5034206;28;20416;-54
2023/06/27 04:26:27;;;;;;;13.60;4.30;;;22.50;48.40;;;;;;5035414;28;20915;-53
2023/06/27 04:28:53;;;;;;;7.73;4.10;;;22.50;48.40;;;;;;5035503;28;20186;-55
2023/06/27 04:31:18;;;;;;;5.90;4.07;;;22.50;48.00;;;;;;5035166;28;20205;-56
2023/06/27 04:33:44;;;;;;;7.70;4.20;;;22.50;47.60;;;;;;5035421;28;20166;-55
2023/06/27 04:36:10;;;;;;;7.93;4.33;;;22.50;47.70;;;;;;5035321;28;20588;-53
2023/06/27 04:38:39;;;;;;;10.93;3.90;;;22.50;47.60;;;;;;5035228;28;20424;-56
2023/06/27 04:41:09;;;;;;;10.20;4.27;;;22.50;47.80;;;;;;5035103;28;20423;-58
2023/06/27 04:43:35;;;;;;;5.60;4.00;;;22.50;47.60;;;;;;5035194;28;20408;-54
2023/06/27 04:46:01;;;;;;;7.47;4.10;;;22.50;48.00;;;;;;5035080;28;20496;-57
2023/06/27 04:48:28;;;;;;;9.97;4.17;;;22.50;47.60;;;;;;5035276;28;20441;-57
2023/06/27 04:50:54;;;;;;;10.90;4.17;;;22.50;47.80;;;;;;5034967;28;20927;-55
2023/06/27 04:53:21;;;;;;;9.83;4.70;;;22.50;47.90;;;;;;5035204;28;20415;-57
2023/06/27 04:55:48;;;;;;;6.03;3.90;;;22.50;47.70;;;;;;5034976;28;20760;-54
2023/06/27 04:58:18;;;;;;;5.23;4.07;;;22.60;48.00;;;;;;5034806;28;20432;-55
2023/06/27 05:00:47;;;;;;;9.03;3.60;;;22.60;48.20;;;;;;5035002;28;20429;-58
2023/06/27 05:03:13;;;;;;;8.43;4.93;;;22.60;48.30;;;;;;5034998;28;20416;-55
2023/06/27 05:05:39;;;;;;;10.07;4.47;;;22.70;48.20;;;;;;5034693;28;20952;-54
2023/06/27 05:08:05;;;;;;;6.87;3.90;;;22.80;48.50;;;;;;5034982;28;20424;-57
2023/06/27 05:10:31;;;;;;;7.17;4.37;;;22.80;48.00;;;;;;5034797;28;20467;-54
2023/06/27 05:12:58;;;;;;;6.33;4.60;;;22.80;47.70;;;;;;5034882;28;20417;-54
2023/06/27 05:15:23;;;;;;;6.50;3.90;;;22.80;47.70;;;;;;5034642;28;21000;-57
2023/06/27 05:17:53;;;;;;;11.97;5.17;;;22.80;47.70;;;;;;5034568;28;20428;-57
2023/06/27 05:20:19;;;;;;;5.83;4.30;;;22.80;47.50;;;;;;5034439;28;20174;-55
2023/06/27 05:22:45;;;;;;;8.00;5.30;;;22.70;47.40;;;;;;5034550;28;20484;-58
2023/06/27 05:25:12;;;;;;;8.00;4.77;;;22.70;47.30;;;;;;5033967;28;20504;-55
2023/06/27 05:27:38;;;;;;;5.50;4.33;;;22.70;47.30;;;;;;5033427;28;20464;-58
2023/06/27 05:30:04;;;;;;;7.00;4.23;;;22.60;47.10;;;;;;5034208;28;20962;-55
2023/06/27 05:32:30;;;;;;;7.33;5.00;;;22.60;47.10;;;;;;5034213;28;20456;-54
2023/06/27 05:34:55;;;;;;;10.10;4.63;;;22.70;47.70;;;;;;5034290;28;20401;-57
2023/06/27 05:37:21;;;;;;;10.20;5.90;;;22.80;47.50;;;;;;5034691;28;20201;-54
2023/06/27 05:39:47;;;;;;;7.43;4.10;;;22.80;47.30;;;;;;5034336;28;20590;-58
2023/06/27 05:42:12;;;;;;;9.17;4.70;;;22.90;46.70;;;;;;5034094;28;20693;-58
2023/06/27 05:44:38;;;;;;;10.30;3.73;;;23.00;46.60;;;;;;5034280;28;20411;-55
2023/06/27 05:47:05;;;;;;;6.90;4.90;;;23.00;45.60;;;;;;5033995;28;20198;-56
2023/06/27 05:49:31;;;;;;;6.23;4.80;;;22.90;46.60;;;;;;5033819;28;20177;-57
2023/06/27 05:51:57;;;;;;;9.37;4.23;;;22.90;47.00;;;;;;5033821;28;20479;-54
2023/06/27 05:54:23;;;;;;;7.47;3.90;;;23.00;46.50;;;;;;5034081;28;20171;-54
2023/06/27 05:56:49;;;;;;;8.50;3.63;;;22.90;44.90;;;;;;5034032;28;20756;-58
2023/06/27 05:59:15;;;;;;;10.73;4.33;;;22.90;44.70;;;;;;5032415;28;20413;-55
2023/06/27 06:01:41;;;;;;;9.53;3.60;;;22.80;44.20;;;;;;5033832;28;20166;-58
2023/06/27 06:04:07;;;;;;;5.70;4.03;;;22.70;44.90;;;;;;5033974;28;20554;-57
2023/06/27 06:06:38;;;;;;;5.17;3.40;;;22.60;43.30;;;;;;5033583;28;20750;-55
2023/06/27 06:09:07;;;;;;;9.13;4.30;;;22.50;43.20;;;;;;5033751;28;20194;-58
2023/06/27 06:11:34;;;;;;;9.10;3.37;;;22.50;44.70;;;;;;5033637;28;20459;-55
2023/06/27 06:14:01;;;;;;;10.20;4.27;;;22.50;44.10;;;;;;5033901;28;20488;-55
2023/06/27 06:16:27;;;;;;;5.77;4.00;;;22.40;43.80;;;;;;5033365;28;20405;-57
2023/06/27 06:18:53;;;;;;;8.03;3.70;;;22.40;44.10;;;;;;5033718;28;20405;-55
2023/06/27 06:21:20;;;;;;;7.03;3.97;;;22.40;43.80;;;;;;5033317;28;20401;-55
2023/06/27 06:23:45;;;;;;;7.97;4.10;;;22.40;43.70;;;;;;5033274;28;20416;-58
2023/06/27 06:26:11;;;;;;;7.60;4.67;;;22.50;44.00;;;;;;5033575;28;20404;-55
2023/06/27 06:28:38;;;;;;;9.20;4.37;;;22.50;43.20;;;;;;5033171;28;20209;-56
2023/06/27 06:31:04;;;;;;;6.83;3.60;;;22.50;42.80;;;;;;5032935;28;20202;-59
2023/06/27 06:33:30;;;;;;;10.43;4.37;;;22.40;43.60;;;;;;5033272;28;20912;-55
2023/06/27 06:35:56;;;;;;;7.73;4.60;;;22.50;43.20;;;;;;5033036;28;20401;-54
2023/06/27 06:38:22;;;;;;;6.23;3.50;;;22.50;43.20;;;;;;5032953;28;21031;-59
2023/06/27 06:40:47;;;;;;;9.67;4.03;;;22.60;44.00;;;;;;5033049;28;20936;-59
2023/06/27 06:43:13;;;;;;;7.53;3.50;;;22.70;44.00;;;;;;5032974;28;20224;-55
2023/06/27 06:45:39;;;;;;;10.00;3.70;;;22.80;43.50;;;;;;5032898;28;20170;-60
2023/06/27 06:48:05;;;;;;;7.13;3.50;;;23.00;44.30;;;;;;5032922;28;20251;-59
2023/06/27 06:50:32;;;;;;;7.67;2.70;;;23.10;43.30;;;;;;5032589;28;20534;-56
2023/06/27 06:52:58;;;;;;;5.97;2.90;;;23.20;42.20;;;;;;5032592;28;20515;-58
2023/06/27 06:55:23;;;;;;;5.63;2.90;;;23.20;40.40;;;;;;5032784;28;20817;-55
2023/06/27 06:57:49;;;;;;;8.03;3.20;;;23.20;40.50;;;;;;5032948;28;20424;-57
2023/06/27 07:00:17;;;;;;;9.37;2.87;;;23.30;40.50;;;;;;5033020;28;20901;-54
2023/06/27 07:02:43;;;;;;;8.87;3.13;;;23.30;41.20;;;;;;5032737;28;20405;-55
2023/06/27 07:05:09;;;;;;;7.07;3.40;;;23.40;40.30;;;;;;5032503;28;20408;-53
2023/06/27 07:07:35;;;;;;;9.53;3.33;;;23.40;39.80;;;;;;5032415;28;20251;-56
2023/06/27 07:10:00;;;;;;;6.67;2.53;;;23.50;40.20;;;;;;5031079;28;20416;-56
2023/06/27 07:12:26;;;;;;;10.80;2.70;;;23.50;38.10;;;;;;5032400;28;20945;-58
2023/06/27 07:14:52;;;;;;;6.20;2.30;;;23.50;38.70;;;;;;5032396;28;20169;-55
2023/06/27 07:17:18;;;;;;;7.27;3.17;;;23.60;37.50;;;;;;5031122;28;20186;-56
2023/06/27 07:19:44;;;;;;;6.60;3.07;;;23.60;38.30;;;;;;5032188;28;20496;-55
2023/06/27 07:22:10;;;;;;;7.57;2.50;;;23.70;38.20;;;;;;5032352;28;20173;-57
2023/06/27 07:24:35;;;;;;;12.20;3.07;;;23.70;37.70;;;;;;5032600;28;20201;-53
2023/06/27 07:27:02;;;;;;;2.60;1.80;;;23.70;37.90;;;;;;5032257;28;20690;-54
2023/06/27 07:29:28;;;;;;;5.83;2.40;;;23.90;37.70;;;;;;5031960;28;20424;-58
2023/06/27 07:31:53;;;;;;;7.50;2.20;;;23.90;38.30;;;;;;5032144;28;20453;-55
2023/06/27 07:34:19;;;;;;;7.03;2.80;;;23.90;38.20;;;;;;5032157;28;20166;-55
2023/06/27 07:36:47;;;;;;;3.00;2.17;;;23.90;36.70;;;;;;5032022;28;20209;-56
2023/06/27 07:39:13;;;;;;;6.93;2.53;;;24.00;36.50;;;;;;5032176;28;20600;-55
2023/06/27 07:41:39;;;;;;;4.87;2.17;;;23.90;36.10;;;;;;5032254;28;20419;-57
2023/06/27 07:44:05;;;;;;;3.90;2.10;;;23.80;36.00;;;;;;5030843;28;20425;-57
2023/06/27 07:46:31;;;;;;;4.63;1.90;;;23.80;36.20;;;;;;5031898;28;20412;-56
2023/06/27 07:48:59;;;;;;;8.13;2.20;;;23.80;36.80;;;;;;5031248;28;20182;-58
2023/06/27 07:51:31;;;;;;;5.00;2.93;;;23.90;36.80;;;;;;5032003;28;20275;-55
2023/06/27 07:53:56;;;;;;;5.00;2.40;;;24.00;36.60;;;;;;5032269;28;20474;-55
2023/06/27 07:56:22;;;;;;;4.77;2.77;;;24.20;36.40;;;;;;5031993;28;20789;-56
2023/06/27 07:58:48;;;;;;;15.33;3.20;;;24.30;37.10;;;;;;5032136;28;20240;-54
2023/06/27 08:01:14;;;;;;;7.13;2.83;;;24.40;36.70;;;;;;5032135;28;20765;-56
2023/06/27 08:03:40;;;;;;;7.13;2.20;;;24.50;35.40;;;;;;5031753;28;20483;-58
2023/06/27 08:06:05;;;;;;;5.70;2.17;;;24.60;35.20;;;;;;5032109;28;20631;-56
2023/06/27 08:08:31;;;;;;;7.37;2.40;;;24.60;34.60;;;;;;5031852;28;20261;-57
2023/06/27 08:10:57;;;;;;;5.33;2.23;;;24.60;34.50;;;;;;5031674;28;20447;-57
2023/06/27 08:13:24;;;;;;;5.13;2.30;;;24.70;35.90;;;;;;5031888;28;20643;-54
2023/06/27 08:15:50;;;;;;;7.67;2.40;;;24.80;35.00;;;;;;5032118;28;20409;-56
2023/06/27 08:18:16;;;;;;;8.63;3.27;;;24.80;34.40;;;;;;5031672;28;20433;-58
2023/06/27 08:20:42;;;;;;;6.93;2.50;;;24.90;33.70;;;;;;5031771;28;20448;-57
2023/06/27 08:23:08;;;;;;;8.83;2.30;;;24.90;33.50;;;;;;5031725;28;20404;-55
2023/06/27 08:25:34;;;;;;;6.03;1.93;;;24.90;34.70;;;;;;5031637;28;20173;-57
2023/06/27 08:27:59;;;;;;;4.47;2.00;;;24.90;32.80;;;;;;5031618;28;20216;-58
2023/06/27 08:30:27;;;;;;;5.60;2.43;;;25.00;33.70;;;;;;5031703;28;20408;-55
2023/06/27 08:32:54;;;;;;;3.37;2.00;;;25.10;32.80;;;;;;5031475;28;20710;-58
2023/06/27 08:35:21;;;;;;;9.07;2.73;;;25.10;33.60;;;;;;5031866;28;20404;-55
2023/06/27 08:37:46;;;;;;;7.23;2.90;;;25.20;33.80;;;;;;5031750;28;20512;-58
2023/06/27 08:40:23;;;;;;;4.43;2.30;;;25.20;32.20;;;;;;5031387;28;20492;-55
2023/06/27 08:42:49;;;;;;;4.63;1.60;;;25.30;32.70;;;;;;5031660;28;20412;-58
2023/06/27 08:45:14;;;;;;;4.87;1.80;;;25.30;31.40;;;;;;5031480;28;20419;-58
2023/06/27 08:47:44;;;;;;;4.80;2.03;;;25.40;32.50;;;;;;5031452;28;20198;-56
2023/06/27 08:50:13;;;;;;;4.10;1.87;;;25.50;32.60;;;;;;5031206;28;20408;-56
2023/06/27 08:52:44;;;;;;;6.70;2.47;;;25.50;31.50;;;;;;5031324;28;20491;-58
2023/06/27 08:55:34;;;;;;;4.40;1.73;;;25.50;31.50;;;;;;5031534;28;20400;-56
2023/06/27 08:58:08;;;;;;;5.80;2.10;;;25.30;31.20;;;;;;5031400;28;20421;-55
2023/06/27 09:00:35;;;;;;;7.80;1.70;;;25.00;30.70;;;;;;5032710;28;20392;-58
2023/06/27 09:03:03;;;;;;;5.83;2.20;;;25.00;30.80;;;;;;5035039;28;20415;-56
2023/06/27 09:05:33;;;;;;;3.60;1.60;;;25.00;31.00;;;;;;5034804;28;20407;-56
2023/06/27 09:07:59;;;;;;;4.90;2.67;;;25.00;29.30;;;;;;5033780;28;20436;-55
2023/06/27 09:10:26;;;;;;;3.23;2.00;;;24.90;31.20;;;;;;5034762;28;20496;-56
2023/06/27 09:12:54;;;;;;;6.37;2.10;;;24.90;30.30;;;;;;5034829;28;20495;-56
2023/06/27 09:15:20;;;;;;;3.60;1.83;;;24.80;31.80;;;;;;5035063;28;20405;-56
2023/06/27 09:17:46;;;;;;;4.23;1.70;;;24.70;31.40;;;;;;5034487;28;20424;-58
2023/06/27 09:20:19;;;;;;;4.13;1.53;;;24.60;31.90;;;;;;5034398;28;20429;-55
2023/06/27 09:22:45;;;;;;;5.10;1.73;;;24.60;32.90;;;;;;5034516;28;20943;-56
2023/06/27 09:25:15;;;;;;;2.80;1.80;;;24.50;33.90;;;;;;5034389;28;20448;-59
2023/06/27 09:27:42;;;;;;;3.63;1.83;;;24.60;34.80;;;;;;5034338;28;20527;-56
2023/06/27 09:30:10;;;;;;;4.80;1.90;;;24.70;34.40;;;;;;5034348;28;20415;-56
2023/06/27 09:32:58;;;;;;;7.40;2.13;;;24.90;33.10;;;;;;5034513;28;20452;-58
2023/06/27 09:35:25;;;;;;;6.50;2.30;;;25.10;34.20;;;;;;5034122;28;20401;-56
2023/06/27 09:37:52;;;;;;;3.37;2.23;;;25.30;34.20;;;;;;5034500;28;20500;-56
2023/06/27 09:40:20;;;;;;;3.90;1.83;;;25.50;32.90;;;;;;5034370;28;20404;-58
2023/06/27 09:42:53;;;;;;;5.23;2.30;;;25.70;32.60;;;;;;5034544;28;20760;-55
2023/06/27 09:45:20;;;;;;;4.23;2.20;;;25.70;32.30;;;;;;5034250;28;20405;-58
2023/06/27 09:47:48;;;;;;;4.00;1.90;;;25.70;30.60;;;;;;5033895;28;20432;-58
2023/06/27 09:50:14;;;;;;;6.67;2.57;;;25.60;31.60;;;;;;5034125;28;20487;-55
2023/06/27 09:52:40;;;;;;;5.50;2.10;;;25.40;30.90;;;;;;5033985;28;20861;-56
2023/06/27 09:55:18;;;;;;;3.73;1.80;;;25.30;32.70;;;;;;5033943;28;20427;-55
2023/06/27 09:57:44;;;;;;;5.07;2.00;;;25.20;32.20;;;;;;5033974;28;20200;-58
2023/06/27 10:00:14;;;;;;;8.90;2.53;;;25.00;31.40;;;;;;5033654;28;20921;-59
2023/06/27 10:02:41;;;;;;;3.30;1.67;;;24.90;32.70;;;;;;5032422;28;20944;-55
2023/06/27 10:05:07;;;;;;;5.90;2.30;;;25.00;30.50;;;;;;5033750;28;20500;-55
2023/06/27 10:07:34;;;;;;;4.73;2.00;;;25.10;32.10;;;;;;5033823;28;20511;-55
2023/06/27 10:10:00;;;;;;;2.50;1.67;;;25.30;32.00;;;;;;5033534;28;20440;-56
2023/06/27 10:12:26;;;;;;;4.90;1.90;;;25.50;31.90;;;;;;5032777;28;20543;-58
2023/06/27 10:14:53;;;;;;;8.00;2.07;;;25.80;29.80;;;;;;5032270;28;20407;-55
2023/06/27 10:17:19;;;;;;;5.43;1.33;;;25.90;30.60;;;;;;5033413;28;20438;-57
2023/06/27 10:19:46;;;;;;;5.60;1.87;;;26.10;30.30;;;;;;5033311;28;20955;-57
2023/06/27 10:22:16;;;;;;;4.40;1.83;;;26.30;31.20;;;;;;5033400;28;20417;-58
2023/06/27 10:24:45;;;;;;;4.33;2.00;;;26.40;28.20;;;;;;5033639;28;20408;-56
2023/06/27 10:27:13;;;;;;;2.90;1.70;;;26.40;30.20;;;;;;5033100;28;20444;-55
2023/06/27 10:29:42;;;;;;;5.57;1.80;;;26.50;30.20;;;;;;5033005;28;20420;-58
2023/06/27 10:32:09;;;;;;;3.00;1.27;;;26.60;30.70;;;;;;5033183;28;20460;-54
2023/06/27 10:34:42;;;;;;;2.70;1.47;;;26.70;28.50;;;;;;5033197;28;20397;-58
2023/06/27 10:37:26;;;;;;;2.27;1.30;;;26.70;27.40;;;;;;5033124;28;20425;-56
2023/06/27 10:40:04;;;;;;;3.83;1.47;;;26.70;29.30;;;;;;5032856;28;20443;-55
2023/06/27 10:42:31;;;;;;;4.90;1.63;;;26.70;27.10;;;;;;5033064;28;20399;-57
2023/06/27 10:45:07;;;;;;;4.93;2.23;;;26.70;28.00;;;;;;5033096;28;20408;-55
2023/06/27 10:47:41;;;;;;;2.63;1.67;;;26.70;26.70;;;;;;5032968;28;20988;-57
2023/06/27 10:50:12;;;;;;;3.33;1.90;;;26.60;27.50;;;;;;5032557;28;20413;-55
2023/06/27 10:52:39;;;;;;;3.00;1.97;;;26.70;26.10;;;;;;5032771;28;20491;-55
2023/06/27 10:55:13;;;;;;;2.33;1.50;;;26.70;26.80;;;;;;5032765;28;20428;-58
2023/06/27 10:57:40;;;;;;;3.23;1.80;;;26.70;25.10;;;;;;5032915;28;20519;-54
2023/06/27 11:00:13;;;;;;;7.03;1.80;;;26.60;25.70;;;;;;5032516;28;20475;-56
2023/06/27 11:02:45;;;;;;;4.40;2.00;;;26.70;27.00;;;;;;5031400;28;20908;-58
2023/06/27 11:05:16;;;;;;;4.87;1.60;;;26.70;25.70;;;;;;5032572;28;20503;-55
2023/06/27 11:07:58;;;;;;;8.80;1.50;;;26.70;26.60;;;;;;5032536;28;20432;-57
2023/06/27 11:10:26;;;;;;;9.13;1.87;;;26.90;26.50;;;;;;5032525;28;20401;-55
2023/06/27 11:13:13;;;;;;;4.23;1.30;;;26.80;26.60;;;;;;5032522;28;20440;-55
2023/06/27 11:15:38;;;;;;;3.73;1.50;;;26.80;25.70;;;;;;5032386;28;20432;-58
2023/06/27 11:18:05;;;;;;;3.30;1.50;;;26.50;24.60;;;;;;5032437;28;20461;-55
2023/06/27 11:20:31;;;;;;;5.33;1.97;;;26.30;26.00;;;;;;5032295;28;20166;-55
2023/06/27 11:23:02;;;;;;;5.20;2.10;;;26.00;27.60;;;;;;5032666;28;20412;-57
2023/06/27 11:25:34;;;;;;;4.13;1.90;;;25.80;27.80;;;;;;5031915;28;20458;-55
2023/06/27 11:28:00;;;;;;;4.00;1.80;;;25.50;29.00;;;;;;5032184;28;20448;-55
2023/06/27 11:30:27;;;;;;;5.43;1.63;;;25.50;29.80;;;;;;5032343;28;20507;-58
2023/06/27 11:32:57;;;;;;;3.83;1.53;;;25.30;28.40;;;;;;5032141;28;20217;-58
2023/06/27 11:35:23;;;;;;;2.17;1.30;;;25.20;29.50;;;;;;5032328;28;20404;-56
2023/06/27 11:37:56;;;;;;;4.60;1.23;;;25.30;30.30;;;;;;5032378;28;20429;-56
2023/06/27 11:40:23;;;;;;;3.87;1.67;;;25.40;28.30;;;;;;5031802;28;20915;-58
2023/06/27 11:42:49;;;;;;;2.33;1.30;;;25.70;29.80;;;;;;5032429;28;20408;-55
2023/06/27 11:45:15;;;;;;;4.73;1.87;;;25.90;27.90;;;;;;5032180;28;20420;-55
2023/06/27 11:47:41;;;;;;;5.63;1.40;;;26.10;28.50;;;;;;5032308;28;20424;-58
2023/06/27 11:50:11;;;;;;;4.13;1.60;;;26.20;30.00;;;;;;5031902;28;20908;-55
2023/06/27 11:52:38;;;;;;;4.23;1.50;;;26.40;29.00;;;;;;5030777;28;20457;-57
2023/06/27 11:55:05;;;;;;;6.00;1.63;;;26.50;30.20;;;;;;5031884;28;20409;-55
2023/06/27 11:57:48;;;;;;;2.70;1.70;;;26.70;30.20;;;;;;5032057;28;20467;-55
2023/06/27 12:00:25;;;;;;;4.97;1.57;;;27.00;28.20;;;;;;5031989;28;20497;-55
2023/06/27 12:02:53;;;;;;;5.73;1.57;;;27.10;28.30;;;;;;5031987;28;20427;-55
2023/06/27 12:05:20;;;;;;;2.37;1.47;;;27.20;26.90;;;;;;5031837;28;20405;-58
2023/06/27 12:08:03;;;;;;;16.03;2.07;;;27.20;26.20;;;;;;5032223;28;20428;-55
2023/06/27 12:10:49;;;;;;;5.50;2.00;;;27.30;26.10;;;;;;5031608;28;20413;-58
2023/06/27 12:13:15;;;;;;;5.23;2.10;;;27.30;27.20;;;;;;5031890;28;20408;-55
2023/06/27 12:15:46;;;;;;;3.30;1.67;;;27.30;28.40;;;;;;5031629;28;20408;-55
2023/06/27 12:18:23;;;;;;;3.03;1.90;;;27.40;27.60;;;;;;5032018;28;20194;-57
2023/06/27 12:20:51;;;;;;;4.33;1.53;;;27.50;28.20;;;;;;5031547;28;20385;-55
2023/06/27 12:23:17;;;;;;;2.67;1.87;;;27.40;26.10;;;;;;5031705;28;20404;-56
2023/06/27 12:25:43;;;;;;;5.73;1.53;;;27.50;28.70;;;;;;5031595;28;20400;-58
2023/06/27 12:28:10;;;;;;;2.60;1.40;;;27.70;27.80;;;;;;5031410;28;20456;-55
2023/06/27 12:30:35;;;;;;;3.33;2.03;;;27.90;28.00;;;;;;5031583;28;20405;-55
2023/06/27 12:33:01;;;;;;;6.00;1.80;;;27.90;28.00;;;;;;5031743;28;20458;-58
2023/06/27 12:35:27;;;;;;;3.27;1.67;;;28.10;26.90;;;;;;5032702;28;20574;-54
2023/06/27 12:37:53;;;;;;;4.80;1.63;;;28.10;26.30;;;;;;5035311;28;20510;-58
2023/06/27 12:40:22;;;;;;;4.77;2.03;;;28.00;26.10;;;;;;5035101;28;20400;-55
2023/06/27 12:42:52;;;;;;;4.30;1.47;;;28.00;27.20;;;;;;5035177;28;20188;-55
2023/06/27 12:45:19;;;;;;;9.70;1.60;;;28.00;26.00;;;;;;5035397;28;20431;-57
2023/06/27 12:47:45;;;;;;;3.30;1.73;;;28.00;26.60;;;;;;5035391;28;20436;-55